Time;durP1;ratioP1;P1;durP2;ratioP2;P2;SDS_P1;SDS_P2;PMS_P1;PMS_P2;Temp;Humidity;BMP_temperature;BMP_pressure;BME280_temperature;BME280_humidity;BME280_pressure;Samples;Min_cycle;Max_cycle;Signal;HPM_P1;HPM_P2
2020/12/17 00:02:14;;;;;;;0.30;0.10;;;;;;;6.60;100.00;100402.28;5035406;28;20522;-79
2020/12/17 00:04:40;;;;;;;0.30;0.20;;;;;;;6.53;100.00;100405.88;5035073;28;20455;-79
2020/12/17 00:07:06;;;;;;;0.30;0.13;;;;;;;6.59;100.00;100407.59;5034997;28;20811;-79
2020/12/17 00:09:32;;;;;;;0.30;0.20;;;;;;;6.62;100.00;100408.44;5031004;28;20492;-79
2020/12/17 00:11:58;;;;;;;0.30;0.20;;;;;;;6.58;100.00;100401.44;5023106;28;20479;-79
2020/12/17 00:14:24;;;;;;;0.83;0.83;;;;;;;6.64;100.00;100400.47;5033106;28;20463;-79
2020/12/17 00:16:51;;;;;;;0.30;0.20;;;;;;;6.57;100.00;100393.50;5034799;28;20521;-80
2020/12/17 00:19:18;;;;;;;0.30;0.20;;;;;;;6.63;100.00;100407.53;5018879;28;21003;-78
2020/12/17 00:21:44;;;;;;;0.30;0.10;;;;;;;6.63;100.00;100414.59;5021302;28;20980;-78
2020/12/17 00:24:10;;;;;;;0.30;0.10;;;;;;;6.56;100.00;100403.19;5033508;28;20424;-79
2020/12/17 00:26:36;;;;;;;0.30;0.20;;;;;;;6.54;100.00;100405.84;5024622;28;20507;-79
2020/12/17 00:29:02;;;;;;;0.30;0.20;;;;;;;6.56;100.00;100400.56;5015746;28;20480;-78
2020/12/17 00:31:28;;;;;;;0.30;0.20;;;;;;;6.56;100.00;100404.97;5023204;28;21005;-78
2020/12/17 00:33:54;;;;;;;0.30;0.20;;;;;;;6.43;100.00;100393.66;5025263;28;20806;-78
2020/12/17 00:36:23;;;;;;;0.30;0.20;;;;;;;6.53;100.00;100404.09;5037537;28;20443;-79
2020/12/17 00:38:49;;;;;;;0.30;0.20;;;;;;;6.40;100.00;100391.91;5030751;28;20861;-79
2020/12/17 00:41:17;;;;;;;0.30;0.20;;;;;;;6.40;100.00;100386.63;5014252;28;20849;-78
2020/12/17 00:43:45;;;;;;;0.30;0.20;;;;;;;6.35;100.00;100384.94;5023872;28;20460;-77
2020/12/17 00:46:15;;;;;;;0.30;0.20;;;;;;;6.47;100.00;100392.75;5013432;28;20456;-77
2020/12/17 00:48:42;;;;;;;0.30;0.20;;;;;;;6.41;100.00;100412.16;5027998;28;20452;-78
2020/12/17 00:51:09;;;;;;;0.30;0.20;;;;;;;6.47;100.00;100404.19;5028847;28;20505;-79
2020/12/17 00:53:35;;;;;;;0.30;0.10;;;;;;;6.47;100.00;100400.66;5036570;28;20501;-78
2020/12/17 00:56:01;;;;;;;0.30;0.20;;;;;;;6.43;100.00;100407.72;5036602;28;20870;-79
2020/12/17 00:58:28;;;;;;;0.40;0.30;;;;;;;6.31;100.00;100402.59;5036847;28;20987;-79
2020/12/17 01:00:57;;;;;;;0.30;0.20;;;;;;;6.42;100.00;100415.66;5035857;28;20506;-79
2020/12/17 01:03:23;;;;;;;0.30;0.20;;;;;;;6.50;100.00;100403.28;5016852;28;20463;-79
2020/12/17 01:05:49;;;;;;;0.30;0.20;;;;;;;6.28;100.00;100414.91;5016284;28;20886;-80
2020/12/17 01:08:16;;;;;;;0.30;0.20;;;;;;;6.32;100.00;100421.94;5038001;28;20529;-78
2020/12/17 01:10:44;;;;;;;0.30;0.20;;;;;;;6.40;100.00;100409.53;5043329;28;20633;-79
2020/12/17 01:13:10;;;;;;;0.30;0.20;;;;;;;6.41;100.00;100422.72;5016551;28;20448;-79
2020/12/17 01:15:36;;;;;;;0.30;0.20;;;;;;;6.40;100.00;100425.38;5028031;28;20451;-79
2020/12/17 01:18:02;;;;;;;0.30;0.20;;;;;;;6.35;100.00;100419.25;5036313;28;20460;-78
2020/12/17 01:20:29;;;;;;;0.30;0.20;;;;;;;6.14;100.00;100413.28;5035557;28;20455;-79
2020/12/17 01:22:55;;;;;;;0.30;0.20;;;;;;;6.18;100.00;100406.22;5035591;28;20478;-79
2020/12/17 01:25:21;;;;;;;0.30;0.20;;;;;;;6.15;100.00;100411.50;5036901;28;20455;-80
2020/12/17 01:27:48;;;;;;;0.30;0.20;;;;;;;5.97;100.00;100411.66;5035721;28;20452;-79
2020/12/17 01:30:14;;;;;;;0.30;0.20;;;;;;;5.86;100.00;100422.25;5036586;28;20496;-79
2020/12/17 01:32:41;;;;;;;0.30;0.20;;;;;;;5.76;100.00;100420.59;5036241;28;20517;-80
2020/12/17 01:35:07;;;;;;;0.30;0.20;;;;;;;5.92;100.00;100425.78;5035222;28;20464;-79
2020/12/17 01:37:34;;;;;;;0.30;0.20;;;;;;;5.74;100.00;100411.78;5047361;28;20447;-78
2020/12/17 01:40:00;;;;;;;0.30;0.20;;;;;;;5.98;100.00;100427.47;5037536;28;20466;-79
2020/12/17 01:42:26;;;;;;;0.30;0.20;;;;;;;5.98;100.00;100427.47;5021514;28;21075;-80
2020/12/17 01:44:53;;;;;;;0.30;0.20;;;;;;;6.13;100.00;100427.34;5013509;22;20517;-53
2020/12/17 01:47:19;;;;;;;0.30;0.20;;;;;;;6.07;100.00;100432.69;5001828;28;20463;-54
2020/12/17 01:49:46;;;;;;;0.30;0.20;;;;;;;6.09;100.00;100432.69;5014643;28;20501;-54
2020/12/17 01:52:13;;;;;;;0.30;0.20;;;;;;;6.15;100.00;100433.50;5014246;28;21001;-54
2020/12/17 01:54:39;;;;;;;0.30;0.20;;;;;;;6.17;100.00;100437.03;5014727;28;20825;-54
2020/12/17 01:57:06;;;;;;;0.30;0.20;;;;;;;6.18;100.00;100432.63;4988923;28;20864;-53
2020/12/17 01:59:48;;;;;;;0.30;0.20;;;;;;;6.16;100.00;100426.44;5014332;28;20465;-53
2020/12/17 02:02:19;;;;;;;0.30;0.20;;;;;;;6.18;100.00;100437.91;5014593;28;20453;-53
2020/12/17 02:04:46;;;;;;;0.30;0.20;;;;;;;6.16;100.00;100439.66;5013052;28;20954;-54
2020/12/17 02:07:12;;;;;;;0.30;0.20;;;;;;;6.18;100.00;100445.81;5013957;28;20564;-54
2020/12/17 02:09:39;;;;;;;0.30;0.20;;;;;;;6.13;100.00;100437.91;5012037;28;20528;-53
2020/12/17 02:12:05;;;;;;;0.30;0.20;;;;;;;5.94;100.00;100446.88;5014490;28;20459;-53
2020/12/17 02:14:32;;;;;;;0.30;0.20;;;;;;;6.12;100.00;100437.94;5013528;28;20549;-58
2020/12/17 02:16:58;;;;;;;0.30;0.20;;;;;;;6.10;100.00;100439.72;5013735;28;20512;-59
2020/12/17 02:19:24;;;;;;;0.30;0.20;;;;;;;6.10;100.00;100447.63;5013602;28;20977;-59
2020/12/17 02:21:50;;;;;;;0.30;0.20;;;;;;;6.07;100.00;100434.47;5013810;28;20459;-54
2020/12/17 02:24:19;;;;;;;0.30;0.20;;;;;;;6.12;100.00;100456.41;5013882;28;20455;-55
2020/12/17 02:26:45;;;;;;;0.30;0.20;;;;;;;6.22;100.00;100451.03;5013829;28;20507;-56
2020/12/17 02:29:11;;;;;;;0.30;0.20;;;;;;;6.18;100.00;100444.06;5013516;28;20496;-56
2020/12/17 02:31:38;;;;;;;0.30;0.10;;;;;;;6.27;100.00;100431.66;5013667;28;20503;-55
2020/12/17 02:34:04;;;;;;;0.30;0.20;;;;;;;6.23;100.00;100439.59;5013289;28;20938;-56
2020/12/17 02:36:30;;;;;;;0.30;0.20;;;;;;;6.19;100.00;100432.59;5013989;28;20452;-54
2020/12/17 02:38:58;;;;;;;1.30;1.30;;;;;;;5.96;100.00;100444.22;5003144;28;20479;-58
2020/12/17 02:41:24;;;;;;;0.30;0.20;;;;;;;5.75;100.00;100439.91;5013522;28;20977;-58
2020/12/17 02:43:52;;;;;;;0.30;0.20;;;;;;;5.99;100.00;100445.06;5002586;28;20468;-58
2020/12/17 02:46:19;;;;;;;0.30;0.20;;;;;;;6.14;100.00;100438.78;5014034;28;20465;-56
2020/12/17 02:48:50;;;;;;;0.30;0.20;;;;;;;6.15;100.00;100435.25;5013381;28;20499;-59
2020/12/17 02:51:17;;;;;;;0.30;0.20;;;;;;;6.14;100.00;100438.78;5013465;28;20567;-59
2020/12/17 02:53:43;;;;;;;0.30;0.20;;;;;;;6.12;100.00;100430.00;5012747;28;20483;-59
2020/12/17 02:56:12;;;;;;;0.30;0.20;;;;;;;6.31;100.00;100431.63;5013497;28;20453;-59
2020/12/17 02:58:39;;;;;;;0.27;0.20;;;;;;;6.21;100.00;100432.59;5013037;28;20473;-59
2020/12/17 03:01:05;;;;;;;0.70;0.70;;;;;;;6.19;100.00;100424.69;5013027;28;20445;-58
2020/12/17 03:03:31;;;;;;;0.30;0.20;;;;;;;6.15;100.00;100422.06;5013329;28;20445;-59
2020/12/17 03:05:58;;;;;;;0.30;0.20;;;;;;;6.19;100.00;100427.31;5013239;28;20476;-58
2020/12/17 03:08:26;;;;;;;0.30;0.20;;;;;;;6.16;100.00;100419.41;5008764;28;20472;-58
2020/12/17 03:10:53;;;;;;;0.33;0.30;;;;;;;6.22;100.00;100423.78;5012382;28;20488;-58
2020/12/17 03:13:21;;;;;;;0.30;0.20;;;;;;;6.23;100.00;100429.03;5013407;28;20452;-58
2020/12/17 03:15:48;;;;;;;0.30;0.20;;;;;;;6.31;100.00;100436.91;5012631;28;20453;-59
2020/12/17 03:18:15;;;;;;;3.30;3.10;;;;;;;6.20;100.00;100431.72;4987381;28;20473;-59
2020/12/17 03:20:41;;;;;;;0.30;0.20;;;;;;;6.08;100.00;100426.53;5012853;28;20448;-59
2020/12/17 03:23:07;;;;;;;0.30;0.20;;;;;;;6.19;100.00;100431.72;5012627;28;20516;-57
2020/12/17 03:25:33;;;;;;;0.30;0.20;;;;;;;6.11;100.00;100439.69;5012800;28;20456;-58
2020/12/17 03:27:59;;;;;;;0.30;0.20;;;;;;;6.07;100.00;100434.47;5012726;28;20477;-56
2020/12/17 03:30:26;;;;;;;0.30;0.20;;;;;;;6.07;100.00;100443.25;5012396;28;20484;-58
2020/12/17 03:32:52;;;;;;;0.30;0.20;;;;;;;5.97;100.00;100438.06;5012854;28;20461;-57
2020/12/17 03:35:18;;;;;;;0.30;0.20;;;;;;;6.21;100.00;100436.09;5012237;28;20456;-58
2020/12/17 03:37:44;;;;;;;0.30;0.20;;;;;;;6.07;100.00;100427.44;5008002;28;20500;-58
2020/12/17 03:40:10;;;;;;;0.30;0.10;;;;;;;5.77;100.00;100440.81;5006509;28;20448;-56
2020/12/17 03:42:37;;;;;;;0.30;0.20;;;;;;;5.71;100.00;100438.19;5007472;28;20457;-56
2020/12/17 03:45:03;;;;;;;0.30;0.20;;;;;;;5.79;100.00;100439.03;5021681;28;20511;-57
2020/12/17 03:47:29;;;;;;;0.30;0.10;;;;;;;5.71;100.00;100454.91;5012401;28;20452;-59
2020/12/17 03:49:55;;;;;;;2.50;2.40;;;;;;;5.83;100.00;100448.66;5012598;28;20492;-58
2020/12/17 03:52:21;;;;;;;0.30;0.20;;;;;;;5.74;100.00;100446.97;5012675;28;20511;-58
2020/12/17 03:54:47;;;;;;;0.30;0.20;;;;;;;5.62;100.00;100450.56;5012658;28;20449;-58
2020/12/17 03:57:14;;;;;;;0.40;0.40;;;;;;;5.69;100.00;100448.75;5012370;28;20506;-57
2020/12/17 03:59:40;;;;;;;0.30;0.20;;;;;;;5.66;100.00;100440.88;5012459;28;20522;-57
2020/12/17 04:02:06;;;;;;;1.13;1.13;;;;;;;5.63;100.00;100447.06;5012202;28;20820;-57
2020/12/17 04:04:32;;;;;;;0.30;0.20;;;;;;;5.35;100.00;100445.44;5012418;28;20452;-57
2020/12/17 04:07:01;;;;;;;1.07;1.07;;;;;;;5.20;100.00;100450.75;5012611;28;20449;-57
2020/12/17 04:09:27;;;;;;;0.30;0.20;;;;;;;5.27;100.00;100448.09;5002510;28;20475;-58
2020/12/17 04:11:53;;;;;;;0.30;0.20;;;;;;;5.22;100.00;100446.38;4985033;28;20449;-58
2020/12/17 04:14:19;;;;;;;0.30;0.20;;;;;;;5.50;100.00;100449.75;5006652;28;20456;-57
2020/12/17 04:16:45;;;;;;;0.30;0.20;;;;;;;5.27;100.00;100460.41;5012259;28;20444;-57
2020/12/17 04:19:11;;;;;;;0.30;0.20;;;;;;;5.29;100.00;100461.28;5012304;28;20468;-57
2020/12/17 04:21:37;;;;;;;0.30;0.20;;;;;;;5.47;100.00;100457.66;5013223;28;20456;-57
2020/12/17 04:24:04;;;;;;;0.30;0.10;;;;;;;5.24;100.00;100455.16;5016014;28;20448;-57
2020/12/17 04:26:30;;;;;;;0.30;0.20;;;;;;;5.24;100.00;100463.94;5015917;28;20459;-56
2020/12/17 04:29:01;;;;;;;0.23;0.13;;;;;;;5.17;100.00;100456.91;5015786;28;20468;-57
2020/12/17 04:31:28;;;;;;;0.30;0.20;;;;;;;5.26;100.00;100463.94;5015800;28;20499;-56
2020/12/17 04:33:55;;;;;;;0.30;0.10;;;;;;;5.18;100.00;100463.06;5016000;28;20538;-57
2020/12/17 04:36:21;;;;;;;0.20;0.10;;;;;;;5.13;100.00;100460.47;5015786;28;20817;-56
2020/12/17 04:38:47;;;;;;;0.30;0.10;;;;;;;5.23;100.00;100466.59;5005157;28;20609;-57
2020/12/17 04:41:19;;;;;;;0.30;0.20;;;;;;;5.16;100.00;100464.84;5006002;28;20525;-57
2020/12/17 04:43:47;;;;;;;0.20;0.17;;;;;;;5.32;100.00;100474.44;5001998;28;20969;-57
2020/12/17 04:46:18;;;;;;;0.30;0.20;;;;;;;4.94;100.00;100471.97;5015888;28;20529;-57
2020/12/17 04:48:51;;;;;;;0.30;0.20;;;;;;;4.76;100.00;100476.38;5015427;28;20500;-57
2020/12/17 04:51:19;;;;;;;0.30;0.20;;;;;;;4.98;100.00;100469.28;5003701;28;20553;-56
2020/12/17 04:53:48;;;;;;;0.30;0.20;;;;;;;4.89;100.00;100465.81;5014603;28;20448;-57
2020/12/17 04:56:17;;;;;;;0.30;0.20;;;;;;;5.00;100.00;100462.25;5015700;28;20535;-56
2020/12/17 04:58:49;;;;;;;0.23;0.17;;;;;;;4.95;100.00;100473.72;5015564;28;20474;-56
2020/12/17 05:01:17;;;;;;;0.30;0.20;;;;;;;5.00;100.00;100475.44;5015285;28;20452;-58
2020/12/17 05:03:46;;;;;;;0.30;0.20;;;;;;;4.94;100.00;100472.84;5015240;28;20452;-57
2020/12/17 05:06:21;;;;;;;0.20;0.10;;;;;;;4.88;100.00;100480.72;5014988;28;20456;-57
2020/12/17 05:08:52;;;;;;;0.30;0.20;;;;;;;4.84;100.00;100489.53;5010977;28;20527;-57
2020/12/17 05:11:19;;;;;;;0.30;0.20;;;;;;;4.70;100.00;100479.03;5002192;28;20488;-57
2020/12/17 05:13:46;;;;;;;0.30;0.20;;;;;;;4.57;100.00;100479.91;5015134;28;20839;-58
2020/12/17 05:16:13;;;;;;;0.30;0.20;;;;;;;4.60;100.00;100479.91;5014866;28;20962;-57
2020/12/17 05:18:39;;;;;;;0.30;0.10;;;;;;;4.53;100.00;100485.19;5014636;28;20526;-58
2020/12/17 05:21:05;;;;;;;0.30;0.20;;;;;;;4.58;100.00;100492.19;5015160;28;20870;-57
2020/12/17 05:23:32;;;;;;;0.30;0.10;;;;;;;4.64;100.00;100493.94;5014950;28;21027;-57
2020/12/17 05:25:59;;;;;;;0.30;0.10;;;;;;;4.60;100.00;100494.81;5014969;28;20455;-57
2020/12/17 05:28:26;;;;;;;0.30;0.20;;;;;;;4.75;100.00;100503.56;5015122;28;20469;-57
2020/12/17 05:30:52;;;;;;;0.30;0.20;;;;;;;4.40;100.00;100510.66;5014542;28;20499;-57
2020/12/17 05:33:21;;;;;;;0.27;0.20;;;;;;;4.13;100.00;100512.38;5013981;28;20453;-58
2020/12/17 05:35:48;;;;;;;0.30;0.20;;;;;;;4.02;100.00;100519.38;5014912;28;20452;-58
2020/12/17 05:38:21;;;;;;;0.30;0.20;;;;;;;4.04;100.00;100532.53;5006284;28;20835;-56
2020/12/17 05:40:47;;;;;;;0.30;0.20;;;;;;;4.01;100.00;100535.16;5013501;28;20441;-57
2020/12/17 05:43:21;;;;;;;0.30;0.20;;;;;;;4.06;100.00;100538.66;5004687;28;20939;-56
2020/12/17 05:45:47;;;;;;;0.20;0.10;;;;;;;3.93;100.00;100545.63;4988947;28;20445;-58
2020/12/17 05:48:18;;;;;;;0.30;0.10;;;;;;;3.91;100.00;100534.25;5014276;28;20476;-58
2020/12/17 05:50:50;;;;;;;0.20;0.10;;;;;;;3.90;100.00;100540.38;5014596;28;20489;-56
2020/12/17 05:53:17;;;;;;;0.30;0.20;;;;;;;3.95;100.00;100532.50;5014526;28;20483;-57
2020/12/17 05:55:44;;;;;;;0.30;0.20;;;;;;;3.99;100.00;100536.91;5014098;28;20468;-56
2020/12/17 05:58:11;;;;;;;0.30;0.20;;;;;;;3.93;100.00;100547.41;5014505;28;20473;-58
2020/12/17 06:00:37;;;;;;;0.30;0.20;;;;;;;4.07;100.00;100541.28;5014372;28;20451;-57
2020/12/17 06:03:03;;;;;;;0.30;0.20;;;;;;;3.86;100.00;100547.38;5014231;28;20827;-57
2020/12/17 06:05:34;;;;;;;0.30;0.20;;;;;;;3.76;100.00;100553.47;5014348;28;20444;-57
2020/12/17 06:08:00;;;;;;;1.50;1.40;;;;;;;3.82;100.00;100553.50;5009503;28;20492;-57
2020/12/17 06:10:29;;;;;;;0.30;0.20;;;;;;;3.76;100.00;100557.88;5014078;28;20489;-56
2020/12/17 06:12:57;;;;;;;0.30;0.20;;;;;;;3.72;100.00;100564.88;5014144;28;20507;-58
2020/12/17 06:15:25;;;;;;;0.20;0.17;;;;;;;3.78;100.00;100564.00;5014253;28;20510;-58
2020/12/17 06:17:56;;;;;;;0.20;0.10;;;;;;;3.53;100.00;100563.03;5014020;28;20527;-58
2020/12/17 06:20:24;;;;;;;0.23;0.17;;;;;;;3.65;100.00;100565.72;5014112;28;20445;-58
2020/12/17 06:22:55;;;;;;;0.30;0.20;;;;;;;3.55;100.00;100562.16;5013768;28;20964;-57
2020/12/17 06:25:24;;;;;;;0.20;0.10;;;;;;;3.42;100.00;100564.72;5013719;28;20793;-57
2020/12/17 06:27:51;;;;;;;0.20;0.10;;;;;;;3.37;100.00;100566.47;5013917;28;20527;-57
2020/12/17 06:30:21;;;;;;;0.30;0.20;;;;;;;3.56;100.00;100570.91;5013599;28;20488;-56
2020/12/17 06:32:48;;;;;;;2.10;2.00;;;;;;;3.53;100.00;100563.03;5013501;28;20796;-58
2020/12/17 06:35:30;;;;;;;0.20;0.10;;;;;;;3.70;100.00;100577.13;5013705;28;20463;-57
2020/12/17 06:38:05;;;;;;;0.20;0.10;;;;;;;3.80;100.00;100575.41;5007602;28;20473;-58
2020/12/17 06:40:37;;;;;;;0.23;0.20;;;;;;;3.73;100.00;100571.88;5010637;28;20938;-57
2020/12/17 06:43:11;;;;;;;0.20;0.20;;;;;;;3.76;100.00;100581.53;5004378;28;20463;-58
2020/12/17 06:45:38;;;;;;;0.20;0.13;;;;;;;3.86;100.00;100580.69;5010673;28;20937;-58
2020/12/17 06:48:29;;;;;;;0.30;0.20;;;;;;;3.94;100.00;100581.56;5013068;28;20468;-58
2020/12/17 06:50:56;;;;;;;0.30;0.10;;;;;;;3.93;100.00;100578.94;5013357;28;20496;-58
2020/12/17 06:53:39;;;;;;;0.20;0.10;;;;;;;3.93;100.00;100592.09;5013163;28;20453;-58
2020/12/17 06:56:07;;;;;;;0.20;0.20;;;;;;;3.90;100.00;100584.22;5013523;28;20448;-58
2020/12/17 06:58:33;;;;;;;0.30;0.10;;;;;;;4.02;100.00;100592.13;5013206;28;20886;-58
2020/12/17 07:01:00;;;;;;;0.20;0.20;;;;;;;4.04;100.00;100595.63;5013343;28;20448;-58
2020/12/17 07:03:49;;;;;;;0.20;0.10;;;;;;;4.30;100.00;100598.34;5013033;28;20452;-58
2020/12/17 07:06:22;;;;;;;0.20;0.20;;;;;;;4.18;100.00;100606.19;5012851;28;20480;-58
2020/12/17 07:08:52;;;;;;;0.20;0.20;;;;;;;3.91;100.00;100601.72;5008290;28;20476;-58
2020/12/17 07:11:44;;;;;;;0.20;0.20;;;;;;;3.91;100.00;100601.72;5012749;28;20908;-58
2020/12/17 07:14:31;;;;;;;0.20;0.10;;;;;;;4.17;100.00;100615.84;5013313;28;20448;-58
2020/12/17 07:17:00;;;;;;;0.20;0.10;;;;;;;4.21;100.00;100628.13;5012995;28;20499;-57
2020/12/17 07:19:44;;;;;;;0.30;0.10;;;;;;;4.43;100.00;100632.56;5012537;28;20484;-58
2020/12/17 07:22:15;;;;;;;0.20;0.20;;;;;;;4.65;100.00;100638.72;5012814;28;20440;-58
2020/12/17 07:24:50;;;;;;;0.20;0.20;;;;;;;4.75;100.00;100648.41;5013068;28;20507;-57
2020/12/17 07:27:16;;;;;;;0.23;0.10;;;;;;;5.02;100.00;100641.38;5012450;28;20444;-58
2020/12/17 07:29:46;;;;;;;0.20;0.20;;;;;;;4.64;100.00;100642.22;5012363;28;20529;-58
2020/12/17 07:32:44;;;;;;;0.20;0.10;;;;;;;4.42;100.00;100638.72;5012561;28;20480;-58
2020/12/17 07:35:11;;;;;;;0.20;0.10;;;;;;;4.57;100.00;100642.25;5012838;28;20805;-57
2020/12/17 07:37:55;;;;;;;0.20;0.20;;;;;;;4.57;100.00;100650.13;5009022;28;20503;-58
2020/12/17 07:40:21;;;;;;;0.20;0.10;;;;;;;4.62;100.00;100643.13;5008190;28;20450;-57
2020/12/17 07:42:57;;;;;;;0.20;0.20;;;;;;;4.57;100.00;100640.50;5006121;28;20468;-58
2020/12/17 07:45:41;;;;;;;0.20;0.13;;;;;;;4.80;100.00;100644.88;5009772;28;20518;-58
2020/12/17 07:48:36;;;;;;;0.20;0.13;;;;;;;4.63;100.00;100653.66;5012146;28;20472;-57
2020/12/17 07:51:04;;;;;;;0.20;0.20;;;;;;;4.61;100.00;100655.41;5012627;28;20492;-58
2020/12/17 07:53:32;;;;;;;0.30;0.20;;;;;;;4.56;100.00;100651.91;5012512;28;20459;-58
2020/12/17 07:55:59;;;;;;;0.20;0.20;;;;;;;4.82;100.00;100651.06;5012821;28;20456;-57
2020/12/17 07:58:25;;;;;;;0.20;0.10;;;;;;;4.70;100.00;100651.91;5016483;28;21063;-57
2020/12/17 08:00:53;;;;;;;0.30;0.20;;;;;;;4.73;100.00;100658.06;5016864;28;20858;-58
2020/12/17 08:03:20;;;;;;;0.20;0.20;;;;;;;4.88;100.00;100651.91;5016528;28;20804;-56
2020/12/17 08:05:46;;;;;;;0.20;0.13;;;;;;;4.82;100.00;100658.94;5016736;28;20551;-57
2020/12/17 08:08:14;;;;;;;0.30;0.20;;;;;;;4.89;100.00;100673.88;5012265;28;20526;-57
2020/12/17 08:10:41;;;;;;;0.30;0.10;;;;;;;5.05;100.00;100671.22;5016222;28;20488;-57
2020/12/17 08:13:07;;;;;;;0.30;0.20;;;;;;;5.15;100.00;100660.69;5016703;28;20456;-58
2020/12/17 08:15:34;;;;;;;0.20;0.10;;;;;;;5.17;100.00;100670.34;5016125;28;20802;-58
2020/12/17 08:18:02;;;;;;;0.30;0.20;;;;;;;5.15;100.00;100684.41;5015993;28;20883;-57
2020/12/17 08:20:29;;;;;;;0.30;0.10;;;;;;;5.32;100.00;100685.28;5016491;28;20522;-57
2020/12/17 08:22:55;;;;;;;0.20;0.20;;;;;;;5.34;100.00;100692.31;5016065;28;20449;-57
2020/12/17 08:25:25;;;;;;;0.20;0.10;;;;;;;5.54;100.00;100694.03;5016213;28;20448;-58
2020/12/17 08:27:52;;;;;;;0.30;0.20;;;;;;;5.34;100.00;100694.97;5015945;28;20468;-58
2020/12/17 08:30:20;;;;;;;0.30;0.20;;;;;;;5.39;100.00;100688.78;5015731;28;20492;-57
2020/12/17 08:32:51;;;;;;;0.30;0.20;;;;;;;5.25;100.00;100708.13;4989938;28;20467;-57
2020/12/17 08:35:22;;;;;;;0.30;0.20;;;;;;;5.35;100.00;100714.28;5015991;28;20448;-57
2020/12/17 08:37:53;;;;;;;6.90;2.57;;;;;;;5.32;100.00;100701.97;5010570;28;20982;-57
2020/12/17 08:40:27;;;;;;;0.20;0.20;;;;;;;5.37;100.00;100707.25;5011152;28;20459;-57
2020/12/17 08:42:58;;;;;;;0.30;0.20;;;;;;;5.45;100.00;100721.28;5008267;28;20461;-59
2020/12/17 08:45:26;;;;;;;0.30;0.20;;;;;;;5.38;100.00;100710.75;5012947;28;20511;-57
2020/12/17 08:47:57;;;;;;;0.20;0.10;;;;;;;5.46;100.00;100717.75;5015833;28;20522;-57
2020/12/17 08:50:24;;;;;;;0.20;0.10;;;;;;;5.37;100.00;100720.44;5015643;28;20492;-58
2020/12/17 08:52:50;;;;;;;0.30;0.20;;;;;;;5.49;100.00;100723.06;5015386;28;20448;-58
2020/12/17 08:55:16;;;;;;;0.30;0.20;;;;;;;5.53;100.00;100727.44;5015448;28;20460;-58
2020/12/17 08:57:42;;;;;;;0.30;0.20;;;;;;;5.52;100.00;100733.59;5015531;28;20452;-57
2020/12/17 09:00:15;;;;;;;0.30;0.20;;;;;;;5.50;100.00;100735.34;5015424;28;20456;-58
2020/12/17 09:02:43;;;;;;;1.50;1.43;;;;;;;5.47;100.00;100737.97;5015537;28;20444;-57
2020/12/17 09:05:12;;;;;;;0.20;0.20;;;;;;;5.56;100.00;100748.53;5015264;28;20535;-58
2020/12/17 09:07:41;;;;;;;0.30;0.20;;;;;;;5.58;100.00;100759.06;5011107;28;20516;-56
2020/12/17 09:10:12;;;;;;;0.30;0.20;;;;;;;5.51;100.00;100754.69;5001981;28;20463;-57
2020/12/17 09:12:45;;;;;;;0.30;0.30;;;;;;;5.64;100.00;100759.06;5002132;28;20465;-57
2020/12/17 09:15:14;;;;;;;0.30;0.17;;;;;;;5.60;100.00;100754.66;5014277;28;20459;-59
2020/12/17 09:17:40;;;;;;;0.30;0.17;;;;;;;5.64;100.00;100761.72;5014654;28;20452;-58
2020/12/17 09:20:17;;;;;;;0.30;0.20;;;;;;;5.63;100.00;100763.47;5014986;28;20465;-58
2020/12/17 09:22:45;;;;;;;0.30;0.20;;;;;;;5.72;100.00;100766.97;5014906;28;20506;-59
2020/12/17 09:25:12;;;;;;;0.30;0.20;;;;;;;5.75;100.00;100769.59;5015415;28;20825;-58
2020/12/17 09:27:40;;;;;;;0.47;0.43;;;;;;;5.77;100.00;100775.78;5015020;28;20510;-56
2020/12/17 09:30:19;;;;;;;0.30;0.20;;;;;;;5.76;100.00;100772.25;5014739;28;20961;-57
2020/12/17 09:32:59;;;;;;;0.30;0.20;;;;;;;5.77;100.00;100781.91;5014565;28;20462;-58
2020/12/17 09:35:30;;;;;;;0.30;0.10;;;;;;;5.86;100.00;100778.38;5015001;28;20535;-59
2020/12/17 09:37:58;;;;;;;0.30;0.20;;;;;;;5.83;100.00;100781.91;5008717;28;20473;-58
2020/12/17 09:40:25;;;;;;;0.30;0.20;;;;;;;5.99;100.00;100789.81;5010934;28;20453;-57
2020/12/17 09:43:03;;;;;;;0.30;0.20;;;;;;;6.38;100.00;100783.56;5007036;28;20468;-58
2020/12/17 09:45:33;;;;;;;0.30;0.17;;;;;;;6.33;100.00;100803.81;5012205;28;20811;-58
2020/12/17 09:48:00;;;;;;;0.30;0.20;;;;;;;6.27;100.00;100801.19;5003211;28;20520;-56
2020/12/17 09:50:26;;;;;;;1.80;1.50;;;;;;;6.33;100.00;100809.09;5012666;28;20542;-56
2020/12/17 09:52:52;;;;;;;0.30;0.20;;;;;;;6.20;100.00;100803.84;5014352;28;20456;-57
2020/12/17 09:55:18;;;;;;;0.30;0.20;;;;;;;6.58;100.00;100804.59;5014237;28;21004;-58
2020/12/17 09:57:46;;;;;;;0.30;0.20;;;;;;;6.24;100.00;100807.34;5014377;28;20457;-58
2020/12/17 10:00:13;;;;;;;0.93;0.93;;;;;;;6.21;100.00;100810.00;5013337;28;20554;-57
2020/12/17 10:02:41;;;;;;;0.30;0.20;;;;;;;6.28;100.00;100817.03;5014193;28;20456;-57
2020/12/17 10:05:08;;;;;;;0.30;0.20;;;;;;;6.40;100.00;100818.75;5013320;28;20456;-57
2020/12/17 10:07:35;;;;;;;0.30;0.20;;;;;;;6.43;100.00;100816.97;5010940;28;20950;-57
2020/12/17 10:10:03;;;;;;;0.30;0.20;;;;;;;6.56;100.00;100823.09;5006091;28;20512;-57
2020/12/17 10:12:40;;;;;;;0.30;0.20;;;;;;;6.48;100.00;100822.25;4998111;28;20445;-57
2020/12/17 10:15:07;;;;;;;0.27;0.20;;;;;;;6.62;100.00;100817.81;5014346;28;20448;-57
2020/12/17 10:17:33;;;;;;;0.30;0.20;;;;;;;6.68;100.00;100825.69;5013739;28;20455;-56
2020/12/17 10:19:59;;;;;;;0.30;0.20;;;;;;;6.82;100.00;100818.56;5013829;28;20460;-56
2020/12/17 10:22:41;;;;;;;0.30;0.20;;;;;;;6.76;100.00;100825.66;5013958;28;20440;-56
2020/12/17 10:25:08;;;;;;;0.30;0.20;;;;;;;6.62;100.00;100817.81;5013996;28;20457;-56
2020/12/17 10:27:34;;;;;;;0.40;0.40;;;;;;;6.57;100.00;100822.19;5013345;28;20819;-56
2020/12/17 10:30:00;;;;;;;0.30;0.20;;;;;;;6.62;100.00;100823.09;5013516;28;20503;-56
2020/12/17 10:32:26;;;;;;;0.30;0.20;;;;;;;6.63;100.00;100823.97;5014039;28;20460;-56
2020/12/17 10:34:53;;;;;;;0.30;0.20;;;;;;;6.58;100.00;100816.06;5013585;28;20535;-57
2020/12/17 10:37:19;;;;;;;0.30;0.30;;;;;;;7.05;100.00;100813.19;5012365;28;20449;-56
2020/12/17 10:39:45;;;;;;;0.30;0.20;;;;;;;7.00;100.00;100814.09;5004524;28;20473;-56
2020/12/17 10:42:11;;;;;;;0.30;0.20;;;;;;;6.94;100.00;100822.94;5011867;28;20440;-57
2020/12/17 10:44:38;;;;;;;0.30;0.20;;;;;;;6.94;100.00;100808.84;5003931;28;20456;-58
2020/12/17 10:47:04;;;;;;;0.30;0.20;;;;;;;7.03;100.00;100819.38;5013527;28;20463;-57
2020/12/17 10:49:31;;;;;;;0.30;0.20;;;;;;;7.18;100.00;100819.28;5013592;28;20471;-57
2020/12/17 10:51:57;;;;;;;0.30;0.27;;;;;;;6.83;100.00;100820.34;5012808;28;20492;-57
2020/12/17 10:54:23;;;;;;;0.30;0.20;;;;;;;6.74;100.00;100803.66;5013218;28;20456;-57
2020/12/17 10:56:49;;;;;;;0.30;0.20;;;;;;;6.71;100.00;100809.81;5013165;28;20448;-57
2020/12/17 10:59:15;;;;;;;0.30;0.20;;;;;;;6.78;100.00;100813.31;5013149;28;20468;-58
2020/12/17 11:01:42;;;;;;;0.30;0.20;;;;;;;6.71;100.00;100814.22;5013130;28;20503;-58
2020/12/17 11:04:08;;;;;;;0.30;0.20;;;;;;;6.68;100.00;100819.53;5013077;28;20953;-58
2020/12/17 11:06:34;;;;;;;0.30;0.20;;;;;;;6.77;100.00;100823.03;5012851;28;20564;-56
2020/12/17 11:09:01;;;;;;;0.30;0.20;;;;;;;7.26;100.00;100813.91;5008632;28;20481;-56
2020/12/17 11:11:27;;;;;;;0.30;0.20;;;;;;;7.21;100.00;100806.03;5012687;28;21013;-57
2020/12/17 11:13:53;;;;;;;0.30;0.20;;;;;;;7.15;100.00;100808.72;5013071;28;20461;-57
2020/12/17 11:16:20;;;;;;;0.30;0.20;;;;;;;7.21;100.00;100806.03;5012718;28;20453;-57
2020/12/17 11:18:46;;;;;;;0.30;0.20;;;;;;;7.29;100.00;100806.88;5012580;28;20479;-56
2020/12/17 11:21:21;;;;;;;0.30;0.20;;;;;;;7.49;100.00;100811.13;5012958;28;20453;-57
2020/12/17 11:23:48;;;;;;;0.30;0.10;;;;;;;7.63;100.00;100804.84;5012949;28;20475;-58
2020/12/17 11:26:14;;;;;;;0.30;0.20;;;;;;;7.62;100.00;100804.84;5012626;28;20461;-57
2020/12/17 11:28:40;;;;;;;0.30;0.20;;;;;;;7.91;100.00;100808.09;5012523;28;20522;-57
2020/12/17 11:31:07;;;;;;;0.30;0.20;;;;;;;7.90;100.00;100801.06;5011873;28;20552;-57